sensor_id;sensor_type;location;lat;lon;timestamp;temperature;humidity
44851;DHT22;30583;48.714;9.386;2022-09-09T00:01:51;17.50;69.60
44851;DHT22;30583;48.714;9.386;2022-09-09T00:09:26;17.10;70.50
44851;DHT22;30583;48.714;9.386;2022-09-09T00:12:13;17.20;70.30
44851;DHT22;30583;48.714;9.386;2022-09-09T00:20:02;17.40;69.70
44851;DHT22;30583;48.714;9.386;2022-09-09T00:22:30;17.00;70.90
44851;DHT22;30583;48.714;9.386;2022-09-09T00:25:08;16.90;71.00
44851;DHT22;30583;48.714;9.386;2022-09-09T00:27:55;17.00;70.90
44851;DHT22;30583;48.714;9.386;2022-09-09T00:30:31;17.00;70.50
44851;DHT22;30583;48.714;9.386;2022-09-09T00:33:08;17.00;70.50
44851;DHT22;30583;48.714;9.386;2022-09-09T00:35:38;17.00;70.10
44851;DHT22;30583;48.714;9.386;2022-09-09T00:38:18;17.00;70.20
44851;DHT22;30583;48.714;9.386;2022-09-09T00:41:07;17.10;69.40
44851;DHT22;30583;48.714;9.386;2022-09-09T00:43:38;17.10;69.50
44851;DHT22;30583;48.714;9.386;2022-09-09T00:46:26;16.90;70.20
44851;DHT22;30583;48.714;9.386;2022-09-09T00:51:27;16.90;70.20
44851;DHT22;30583;48.714;9.386;2022-09-09T00:56:38;17.00;70.00
44851;DHT22;30583;48.714;9.386;2022-09-09T01:01:36;16.70;71.00
44851;DHT22;30583;48.714;9.386;2022-09-09T01:04:07;16.90;70.60
44851;DHT22;30583;48.714;9.386;2022-09-09T01:06:36;17.20;69.80
44851;DHT22;30583;48.714;9.386;2022-09-09T01:09:27;17.20;69.60
44851;DHT22;30583;48.714;9.386;2022-09-09T01:17:17;16.90;70.20
44851;DHT22;30583;48.714;9.386;2022-09-09T01:24:46;17.00;70.20
44851;DHT22;30583;48.714;9.386;2022-09-09T01:27:15;17.00;70.50
44851;DHT22;30583;48.714;9.386;2022-09-09T01:29:42;16.70;71.10
44851;DHT22;30583;48.714;9.386;2022-09-09T01:35:02;17.00;70.50
44851;DHT22;30583;48.714;9.386;2022-09-09T01:37:28;16.70;70.80
44851;DHT22;30583;48.714;9.386;2022-09-09T01:39:54;16.80;70.40
44851;DHT22;30583;48.714;9.386;2022-09-09T01:42:19;16.70;70.60
44851;DHT22;30583;48.714;9.386;2022-09-09T01:44:45;16.90;70.30
44851;DHT22;30583;48.714;9.386;2022-09-09T01:47:11;16.80;70.80
44851;DHT22;30583;48.714;9.386;2022-09-09T01:49:36;16.80;70.80
44851;DHT22;30583;48.714;9.386;2022-09-09T01:52:02;16.70;70.90
44851;DHT22;30583;48.714;9.386;2022-09-09T01:54:30;16.70;70.80
44851;DHT22;30583;48.714;9.386;2022-09-09T01:57:33;16.80;71.00
44851;DHT22;30583;48.714;9.386;2022-09-09T02:05:36;16.60;71.20
44851;DHT22;30583;48.714;9.386;2022-09-09T02:08:18;16.70;71.00
44851;DHT22;30583;48.714;9.386;2022-09-09T02:13:17;16.50;71.00
44851;DHT22;30583;48.714;9.386;2022-09-09T02:15:53;16.60;71.20
44851;DHT22;30583;48.714;9.386;2022-09-09T02:18:32;16.50;71.10
44851;DHT22;30583;48.714;9.386;2022-09-09T02:21:01;16.50;71.10
44851;DHT22;30583;48.714;9.386;2022-09-09T02:23:28;16.50;70.30
44851;DHT22;30583;48.714;9.386;2022-09-09T02:25:56;16.50;70.20
44851;DHT22;30583;48.714;9.386;2022-09-09T02:28:24;16.50;70.60
44851;DHT22;30583;48.714;9.386;2022-09-09T02:30:51;16.70;69.90
44851;DHT22;30583;48.714;9.386;2022-09-09T02:33:25;16.50;71.00
44851;DHT22;30583;48.714;9.386;2022-09-09T02:35:52;16.60;70.50
44851;DHT22;30583;48.714;9.386;2022-09-09T02:38:21;16.50;70.90
44851;DHT22;30583;48.714;9.386;2022-09-09T02:40:50;16.30;71.20
44851;DHT22;30583;48.714;9.386;2022-09-09T02:43:17;16.40;71.10
44851;DHT22;30583;48.714;9.386;2022-09-09T02:49:10;16.40;70.90
44851;DHT22;30583;48.714;9.386;2022-09-09T02:51:51;16.40;70.60
44851;DHT22;30583;48.714;9.386;2022-09-09T02:54:28;16.30;70.80
44851;DHT22;30583;48.714;9.386;2022-09-09T02:59:33;16.30;70.90
44851;DHT22;30583;48.714;9.386;2022-09-09T03:01:59;16.10;71.60
44851;DHT22;30583;48.714;9.386;2022-09-09T03:04:25;16.00;71.70
44851;DHT22;30583;48.714;9.386;2022-09-09T03:06:50;15.80;71.80
44851;DHT22;30583;48.714;9.386;2022-09-09T03:09:16;15.90;72.20
44851;DHT22;30583;48.714;9.386;2022-09-09T03:11:41;15.80;72.00
44851;DHT22;30583;48.714;9.386;2022-09-09T03:14:07;15.90;72.60
44851;DHT22;30583;48.714;9.386;2022-09-09T03:16:33;16.10;72.60
44851;DHT22;30583;48.714;9.386;2022-09-09T03:19:00;16.00;73.00
44851;DHT22;30583;48.714;9.386;2022-09-09T03:21:26;15.80;73.80
44851;DHT22;30583;48.714;9.386;2022-09-09T03:23:51;16.00;73.40
44851;DHT22;30583;48.714;9.386;2022-09-09T03:26:17;16.10;72.80
44851;DHT22;30583;48.714;9.386;2022-09-09T03:28:43;16.10;72.90
44851;DHT22;30583;48.714;9.386;2022-09-09T03:31:10;16.10;72.40
44851;DHT22;30583;48.714;9.386;2022-09-09T03:33:37;16.00;73.00
44851;DHT22;30583;48.714;9.386;2022-09-09T03:36:03;16.10;72.60
44851;DHT22;30583;48.714;9.386;2022-09-09T03:38:29;16.10;72.70
44851;DHT22;30583;48.714;9.386;2022-09-09T03:40:56;16.20;72.00
44851;DHT22;30583;48.714;9.386;2022-09-09T03:43:25;16.20;72.30
44851;DHT22;30583;48.714;9.386;2022-09-09T03:45:52;16.20;72.40
44851;DHT22;30583;48.714;9.386;2022-09-09T03:48:18;16.20;72.50
44851;DHT22;30583;48.714;9.386;2022-09-09T03:50:48;16.00;73.00
44851;DHT22;30583;48.714;9.386;2022-09-09T03:53:15;15.90;73.50
44851;DHT22;30583;48.714;9.386;2022-09-09T03:55:49;15.70;74.50
44851;DHT22;30583;48.714;9.386;2022-09-09T03:58:18;15.60;74.80
44851;DHT22;30583;48.714;9.386;2022-09-09T04:00:57;15.80;74.20
44851;DHT22;30583;48.714;9.386;2022-09-09T04:03:24;15.70;75.00
44851;DHT22;30583;48.714;9.386;2022-09-09T04:05:54;15.70;74.60
44851;DHT22;30583;48.714;9.386;2022-09-09T04:08:20;15.90;74.10
44851;DHT22;30583;48.714;9.386;2022-09-09T04:10:48;16.10;73.60
44851;DHT22;30583;48.714;9.386;2022-09-09T04:13:15;16.10;73.60
44851;DHT22;30583;48.714;9.386;2022-09-09T04:15:43;16.20;72.70
44851;DHT22;30583;48.714;9.386;2022-09-09T04:18:09;16.00;73.80
44851;DHT22;30583;48.714;9.386;2022-09-09T04:20:35;16.00;74.10
44851;DHT22;30583;48.714;9.386;2022-09-09T04:23:00;15.90;74.50
44851;DHT22;30583;48.714;9.386;2022-09-09T04:25:26;15.80;74.40
44851;DHT22;30583;48.714;9.386;2022-09-09T04:27:56;16.00;73.80
44851;DHT22;30583;48.714;9.386;2022-09-09T04:30:22;16.20;73.10
44851;DHT22;30583;48.714;9.386;2022-09-09T04:32:47;16.30;72.90
44851;DHT22;30583;48.714;9.386;2022-09-09T04:35:13;16.30;72.70
44851;DHT22;30583;48.714;9.386;2022-09-09T04:37:39;16.30;72.50
44851;DHT22;30583;48.714;9.386;2022-09-09T04:40:05;16.30;72.30
44851;DHT22;30583;48.714;9.386;2022-09-09T04:42:37;16.20;73.10
44851;DHT22;30583;48.714;9.386;2022-09-09T04:45:04;16.10;72.90
44851;DHT22;30583;48.714;9.386;2022-09-09T04:47:30;16.30;73.30
44851;DHT22;30583;48.714;9.386;2022-09-09T04:49:55;16.40;73.00
44851;DHT22;30583;48.714;9.386;2022-09-09T04:52:22;16.50;72.90
44851;DHT22;30583;48.714;9.386;2022-09-09T04:54:47;16.70;72.30
44851;DHT22;30583;48.714;9.386;2022-09-09T04:57:13;16.50;72.70
44851;DHT22;30583;48.714;9.386;2022-09-09T04:59:39;16.50;72.40
44851;DHT22;30583;48.714;9.386;2022-09-09T05:02:05;16.50;72.10
44851;DHT22;30583;48.714;9.386;2022-09-09T05:04:31;16.60;71.60
44851;DHT22;30583;48.714;9.386;2022-09-09T05:06:56;16.30;71.90
44851;DHT22;30583;48.714;9.386;2022-09-09T05:09:22;15.70;73.70
44851;DHT22;30583;48.714;9.386;2022-09-09T05:11:48;16.00;73.60
44851;DHT22;30583;48.714;9.386;2022-09-09T05:14:14;16.20;72.40
44851;DHT22;30583;48.714;9.386;2022-09-09T05:16:40;16.30;72.10
44851;DHT22;30583;48.714;9.386;2022-09-09T05:19:06;16.30;71.90
44851;DHT22;30583;48.714;9.386;2022-09-09T05:21:33;16.00;73.20
44851;DHT22;30583;48.714;9.386;2022-09-09T05:23:59;16.20;72.50
44851;DHT22;30583;48.714;9.386;2022-09-09T05:26:25;16.60;71.30
44851;DHT22;30583;48.714;9.386;2022-09-09T05:28:51;16.70;70.80
44851;DHT22;30583;48.714;9.386;2022-09-09T05:31:18;16.70;70.80
44851;DHT22;30583;48.714;9.386;2022-09-09T05:33:45;16.70;70.50
44851;DHT22;30583;48.714;9.386;2022-09-09T05:36:16;16.70;71.00
44851;DHT22;30583;48.714;9.386;2022-09-09T05:38:42;16.70;70.70
44851;DHT22;30583;48.714;9.386;2022-09-09T05:41:09;16.70;70.90
44851;DHT22;30583;48.714;9.386;2022-09-09T05:43:36;16.50;71.60
44851;DHT22;30583;48.714;9.386;2022-09-09T05:48:30;16.70;71.10
44851;DHT22;30583;48.714;9.386;2022-09-09T05:50:57;16.70;70.90
44851;DHT22;30583;48.714;9.386;2022-09-09T05:53:23;16.60;71.60
44851;DHT22;30583;48.714;9.386;2022-09-09T05:55:48;16.60;71.80
44851;DHT22;30583;48.714;9.386;2022-09-09T05:58:14;16.60;71.70
44851;DHT22;30583;48.714;9.386;2022-09-09T06:00:42;16.50;71.60
44851;DHT22;30583;48.714;9.386;2022-09-09T06:03:11;16.70;71.10
44851;DHT22;30583;48.714;9.386;2022-09-09T06:05:36;17.10;70.90
44851;DHT22;30583;48.714;9.386;2022-09-09T06:08:03;17.20;69.90
44851;DHT22;30583;48.714;9.386;2022-09-09T06:10:28;17.30;69.80
44851;DHT22;30583;48.714;9.386;2022-09-09T06:12:54;17.20;70.00
44851;DHT22;30583;48.714;9.386;2022-09-09T06:15:20;17.00;70.90
44851;DHT22;30583;48.714;9.386;2022-09-09T06:17:45;16.80;71.90
44851;DHT22;30583;48.714;9.386;2022-09-09T06:20:11;17.20;70.00
44851;DHT22;30583;48.714;9.386;2022-09-09T06:22:40;16.90;71.10
44851;DHT22;30583;48.714;9.386;2022-09-09T06:25:07;17.10;70.50
44851;DHT22;30583;48.714;9.386;2022-09-09T06:27:33;17.00;71.40
44851;DHT22;30583;48.714;9.386;2022-09-09T06:29:58;16.90;70.30
44851;DHT22;30583;48.714;9.386;2022-09-09T06:32:24;17.20;71.10
44851;DHT22;30583;48.714;9.386;2022-09-09T06:34:50;17.50;69.50
44851;DHT22;30583;48.714;9.386;2022-09-09T06:37:15;17.30;69.30
44851;DHT22;30583;48.714;9.386;2022-09-09T06:39:41;17.30;70.40
44851;DHT22;30583;48.714;9.386;2022-09-09T06:42:07;17.30;70.70
44851;DHT22;30583;48.714;9.386;2022-09-09T06:44:33;17.30;70.60
44851;DHT22;30583;48.714;9.386;2022-09-09T06:46:59;17.60;70.10
44851;DHT22;30583;48.714;9.386;2022-09-09T06:49:25;17.70;69.40
44851;DHT22;30583;48.714;9.386;2022-09-09T06:51:50;17.70;68.60
44851;DHT22;30583;48.714;9.386;2022-09-09T06:54:17;17.60;69.40
44851;DHT22;30583;48.714;9.386;2022-09-09T06:56:43;17.50;69.70
44851;DHT22;30583;48.714;9.386;2022-09-09T06:59:11;17.40;69.20
44851;DHT22;30583;48.714;9.386;2022-09-09T07:01:42;17.60;69.90
44851;DHT22;30583;48.714;9.386;2022-09-09T07:04:09;17.90;69.10
44851;DHT22;30583;48.714;9.386;2022-09-09T07:06:46;18.00;69.10
44851;DHT22;30583;48.714;9.386;2022-09-09T07:09:13;17.70;69.00
44851;DHT22;30583;48.714;9.386;2022-09-09T07:11:48;17.90;69.80
44851;DHT22;30583;48.714;9.386;2022-09-09T07:14:14;18.10;69.10
44851;DHT22;30583;48.714;9.386;2022-09-09T07:16:41;18.00;68.80
44851;DHT22;30583;48.714;9.386;2022-09-09T07:19:08;18.10;69.10
44851;DHT22;30583;48.714;9.386;2022-09-09T07:21:34;18.00;68.20
44851;DHT22;30583;48.714;9.386;2022-09-09T07:24:00;18.20;67.10
44851;DHT22;30583;48.714;9.386;2022-09-09T07:26:27;18.30;67.70
44851;DHT22;30583;48.714;9.386;2022-09-09T07:28:54;18.50;67.60
44851;DHT22;30583;48.714;9.386;2022-09-09T07:31:43;18.60;67.10
44851;DHT22;30583;48.714;9.386;2022-09-09T07:34:08;18.20;67.40
44851;DHT22;30583;48.714;9.386;2022-09-09T07:36:36;18.20;69.30
44851;DHT22;30583;48.714;9.386;2022-09-09T07:39:08;18.20;69.50
44851;DHT22;30583;48.714;9.386;2022-09-09T07:41:45;18.80;67.30
44851;DHT22;30583;48.714;9.386;2022-09-09T07:44:13;18.60;67.70
44851;DHT22;30583;48.714;9.386;2022-09-09T07:46:40;18.70;67.70
44851;DHT22;30583;48.714;9.386;2022-09-09T07:49:07;18.80;68.30
44851;DHT22;30583;48.714;9.386;2022-09-09T07:51:39;18.70;67.70
44851;DHT22;30583;48.714;9.386;2022-09-09T07:54:08;18.30;68.70
44851;DHT22;30583;48.714;9.386;2022-09-09T07:56:35;18.50;69.20
44851;DHT22;30583;48.714;9.386;2022-09-09T07:59:02;18.70;68.20
44851;DHT22;30583;48.714;9.386;2022-09-09T08:01:31;18.80;68.10
44851;DHT22;30583;48.714;9.386;2022-09-09T08:04:18;18.80;67.50
44851;DHT22;30583;48.714;9.386;2022-09-09T08:06:49;18.90;68.30
44851;DHT22;30583;48.714;9.386;2022-09-09T08:09:15;19.10;67.50
44851;DHT22;30583;48.714;9.386;2022-09-09T08:11:42;19.10;66.70
44851;DHT22;30583;48.714;9.386;2022-09-09T08:14:09;19.00;67.40
44851;DHT22;30583;48.714;9.386;2022-09-09T08:16:37;19.10;67.60
44851;DHT22;30583;48.714;9.386;2022-09-09T08:19:04;19.20;67.90
44851;DHT22;30583;48.714;9.386;2022-09-09T08:21:32;19.70;67.50
44851;DHT22;30583;48.714;9.386;2022-09-09T08:24:00;19.80;66.10
44851;DHT22;30583;48.714;9.386;2022-09-09T08:26:28;20.20;65.10
44851;DHT22;30583;48.714;9.386;2022-09-09T08:28:56;20.40;64.10
44851;DHT22;30583;48.714;9.386;2022-09-09T08:31:31;20.20;63.60
44851;DHT22;30583;48.714;9.386;2022-09-09T08:33:58;20.20;63.60
44851;DHT22;30583;48.714;9.386;2022-09-09T08:36:26;20.30;65.40
44851;DHT22;30583;48.714;9.386;2022-09-09T08:38:55;20.40;63.30
44851;DHT22;30583;48.714;9.386;2022-09-09T08:44:26;20.30;63.50
44851;DHT22;30583;48.714;9.386;2022-09-09T08:54:49;20.50;62.50
44851;DHT22;30583;48.714;9.386;2022-09-09T08:57:23;20.70;61.80
44851;DHT22;30583;48.714;9.386;2022-09-09T08:59:52;20.70;61.40
44851;DHT22;30583;48.714;9.386;2022-09-09T09:03:06;20.70;60.20
44851;DHT22;30583;48.714;9.386;2022-09-09T09:05:37;20.60;61.60
44851;DHT22;30583;48.714;9.386;2022-09-09T09:08:17;21.10;60.40
44851;DHT22;30583;48.714;9.386;2022-09-09T09:10:48;21.40;60.00
44851;DHT22;30583;48.714;9.386;2022-09-09T09:13:20;21.20;59.10
44851;DHT22;30583;48.714;9.386;2022-09-09T09:15:58;21.30;58.50
44851;DHT22;30583;48.714;9.386;2022-09-09T09:18:26;21.20;58.50
44851;DHT22;30583;48.714;9.386;2022-09-09T09:21:21;21.40;58.10
44851;DHT22;30583;48.714;9.386;2022-09-09T09:23:57;21.70;57.80
44851;DHT22;30583;48.714;9.386;2022-09-09T09:26:29;21.20;58.50
44851;DHT22;30583;48.714;9.386;2022-09-09T09:28:56;21.30;59.00
44851;DHT22;30583;48.714;9.386;2022-09-09T09:31:23;21.20;59.10
44851;DHT22;30583;48.714;9.386;2022-09-09T09:33:53;21.20;59.20
44851;DHT22;30583;48.714;9.386;2022-09-09T09:36:34;21.00;59.80
44851;DHT22;30583;48.714;9.386;2022-09-09T09:39:02;21.20;58.30
44851;DHT22;30583;48.714;9.386;2022-09-09T09:41:40;21.50;58.00
44851;DHT22;30583;48.714;9.386;2022-09-09T09:44:23;22.10;57.50
44851;DHT22;30583;48.714;9.386;2022-09-09T09:46:49;22.20;57.30
44851;DHT22;30583;48.714;9.386;2022-09-09T09:49:14;22.80;55.30
44851;DHT22;30583;48.714;9.386;2022-09-09T09:51:40;23.00;53.80
44851;DHT22;30583;48.714;9.386;2022-09-09T09:54:17;22.30;54.90
44851;DHT22;30583;48.714;9.386;2022-09-09T09:56:44;22.30;51.20
44851;DHT22;30583;48.714;9.386;2022-09-09T10:01:54;21.70;47.30
44851;DHT22;30583;48.714;9.386;2022-09-09T10:04:23;21.70;48.20
44851;DHT22;30583;48.714;9.386;2022-09-09T10:06:50;22.00;48.70
44851;DHT22;30583;48.714;9.386;2022-09-09T10:09:22;22.30;46.40
44851;DHT22;30583;48.714;9.386;2022-09-09T10:14:58;23.00;44.80
44851;DHT22;30583;48.714;9.386;2022-09-09T10:17:41;23.40;44.90
44851;DHT22;30583;48.714;9.386;2022-09-09T10:20:28;23.20;46.10
44851;DHT22;30583;48.714;9.386;2022-09-09T10:29:03;22.70;47.60
44851;DHT22;30583;48.714;9.386;2022-09-09T10:31:45;23.00;47.40
44851;DHT22;30583;48.714;9.386;2022-09-09T10:34:51;23.60;47.20
44851;DHT22;30583;48.714;9.386;2022-09-09T10:37:49;23.50;46.80
44851;DHT22;30583;48.714;9.386;2022-09-09T10:40:34;24.10;47.40
44851;DHT22;30583;48.714;9.386;2022-09-09T10:48:38;23.40;48.00
44851;DHT22;30583;48.714;9.386;2022-09-09T10:53:53;23.20;47.40
44851;DHT22;30583;48.714;9.386;2022-09-09T10:56:23;23.50;47.70
44851;DHT22;30583;48.714;9.386;2022-09-09T10:59:00;23.40;47.80
44851;DHT22;30583;48.714;9.386;2022-09-09T11:01:34;23.20;47.40
44851;DHT22;30583;48.714;9.386;2022-09-09T11:04:09;23.50;48.20
44851;DHT22;30583;48.714;9.386;2022-09-09T11:06:42;23.80;47.70
44851;DHT22;30583;48.714;9.386;2022-09-09T11:09:16;24.50;47.10
44851;DHT22;30583;48.714;9.386;2022-09-09T11:11:53;24.80;45.70
44851;DHT22;30583;48.714;9.386;2022-09-09T11:14:31;24.40;43.90
44851;DHT22;30583;48.714;9.386;2022-09-09T11:17:01;24.00;45.70
44851;DHT22;30583;48.714;9.386;2022-09-09T11:19:41;24.00;45.70
44851;DHT22;30583;48.714;9.386;2022-09-09T11:25:08;23.00;47.00
44851;DHT22;30583;48.714;9.386;2022-09-09T11:27:50;23.30;47.90
44851;DHT22;30583;48.714;9.386;2022-09-09T11:36:24;22.80;47.40
44851;DHT22;30583;48.714;9.386;2022-09-09T11:41:34;21.20;59.60
44851;DHT22;30583;48.714;9.386;2022-09-09T11:44:12;20.80;61.60
44851;DHT22;30583;48.714;9.386;2022-09-09T11:46:40;20.20;63.10
44851;DHT22;30583;48.714;9.386;2022-09-09T11:49:29;19.60;66.20
44851;DHT22;30583;48.714;9.386;2022-09-09T11:51:56;19.90;65.20
44851;DHT22;30583;48.714;9.386;2022-09-09T11:54:31;19.90;65.10
44851;DHT22;30583;48.714;9.386;2022-09-09T11:56:57;20.00;64.50
44851;DHT22;30583;48.714;9.386;2022-09-09T11:59:28;20.20;64.50
44851;DHT22;30583;48.714;9.386;2022-09-09T12:02:08;20.40;65.00
44851;DHT22;30583;48.714;9.386;2022-09-09T12:07:41;22.10;61.90
44851;DHT22;30583;48.714;9.386;2022-09-09T12:12:46;22.40;59.80
44851;DHT22;30583;48.714;9.386;2022-09-09T12:17:58;21.70;57.90
44851;DHT22;30583;48.714;9.386;2022-09-09T12:20:38;21.80;58.90
44851;DHT22;30583;48.714;9.386;2022-09-09T12:23:30;21.40;58.30
44851;DHT22;30583;48.714;9.386;2022-09-09T12:28:52;22.40;54.40
44851;DHT22;30583;48.714;9.386;2022-09-09T12:31:53;22.80;56.20
44851;DHT22;30583;48.714;9.386;2022-09-09T12:34:36;23.30;52.90
44851;DHT22;30583;48.714;9.386;2022-09-09T12:39:58;23.30;50.80
44851;DHT22;30583;48.714;9.386;2022-09-09T12:42:26;24.00;47.10
44851;DHT22;30583;48.714;9.386;2022-09-09T12:44:59;24.10;47.30
44851;DHT22;30583;48.714;9.386;2022-09-09T12:47:46;24.10;46.70
44851;DHT22;30583;48.714;9.386;2022-09-09T12:50:27;23.90;45.60
44851;DHT22;30583;48.714;9.386;2022-09-09T12:52:56;24.60;45.60
44851;DHT22;30583;48.714;9.386;2022-09-09T12:55:31;24.40;44.10
44851;DHT22;30583;48.714;9.386;2022-09-09T12:58:00;24.90;44.70
44851;DHT22;30583;48.714;9.386;2022-09-09T13:00:26;24.80;46.00
44851;DHT22;30583;48.714;9.386;2022-09-09T13:02:58;24.20;44.20
44851;DHT22;30583;48.714;9.386;2022-09-09T13:05:44;23.80;44.00
44851;DHT22;30583;48.714;9.386;2022-09-09T13:08:13;23.40;44.70
44851;DHT22;30583;48.714;9.386;2022-09-09T13:10:44;23.10;46.40
44851;DHT22;30583;48.714;9.386;2022-09-09T13:13:16;22.80;45.90
44851;DHT22;30583;48.714;9.386;2022-09-09T13:15:57;22.40;47.40
44851;DHT22;30583;48.714;9.386;2022-09-09T13:18:29;22.50;47.00
44851;DHT22;30583;48.714;9.386;2022-09-09T13:20:55;23.70;44.80
44851;DHT22;30583;48.714;9.386;2022-09-09T13:23:35;23.00;45.40
44851;DHT22;30583;48.714;9.386;2022-09-09T13:26:05;22.70;45.60
44851;DHT22;30583;48.714;9.386;2022-09-09T13:28:33;22.50;46.00
44851;DHT22;30583;48.714;9.386;2022-09-09T13:31:02;22.70;45.10
44851;DHT22;30583;48.714;9.386;2022-09-09T13:33:33;22.40;46.20
44851;DHT22;30583;48.714;9.386;2022-09-09T13:36:03;22.60;45.40
44851;DHT22;30583;48.714;9.386;2022-09-09T13:38:32;22.40;46.20
44851;DHT22;30583;48.714;9.386;2022-09-09T13:41:03;22.20;45.60
44851;DHT22;30583;48.714;9.386;2022-09-09T13:43:43;22.10;45.20
44851;DHT22;30583;48.714;9.386;2022-09-09T13:49:16;23.20;42.70
44851;DHT22;30583;48.714;9.386;2022-09-09T13:51:45;23.20;45.40
44851;DHT22;30583;48.714;9.386;2022-09-09T13:54:14;23.50;43.10
44851;DHT22;30583;48.714;9.386;2022-09-09T13:56:41;24.10;42.00
44851;DHT22;30583;48.714;9.386;2022-09-09T13:59:18;23.70;42.50
44851;DHT22;30583;48.714;9.386;2022-09-09T14:01:47;23.80;43.50
44851;DHT22;30583;48.714;9.386;2022-09-09T14:04:14;23.60;44.20
44851;DHT22;30583;48.714;9.386;2022-09-09T14:06:41;24.10;43.10
44851;DHT22;30583;48.714;9.386;2022-09-09T14:09:10;23.90;44.80
44851;DHT22;30583;48.714;9.386;2022-09-09T14:11:36;24.30;44.30
44851;DHT22;30583;48.714;9.386;2022-09-09T14:14:02;25.00;44.20
44851;DHT22;30583;48.714;9.386;2022-09-09T14:16:28;25.10;44.00
44851;DHT22;30583;48.714;9.386;2022-09-09T14:18:54;24.90;42.40
44851;DHT22;30583;48.714;9.386;2022-09-09T14:21:22;23.90;42.70
44851;DHT22;30583;48.714;9.386;2022-09-09T14:23:47;23.30;42.40
44851;DHT22;30583;48.714;9.386;2022-09-09T14:26:14;23.40;42.30
44851;DHT22;30583;48.714;9.386;2022-09-09T14:28:40;23.30;42.80
44851;DHT22;30583;48.714;9.386;2022-09-09T14:31:06;23.10;43.10
44851;DHT22;30583;48.714;9.386;2022-09-09T14:33:33;23.30;42.80
44851;DHT22;30583;48.714;9.386;2022-09-09T14:36:00;23.10;43.90
44851;DHT22;30583;48.714;9.386;2022-09-09T14:38:30;23.00;43.60
44851;DHT22;30583;48.714;9.386;2022-09-09T14:40:56;24.00;43.50
44851;DHT22;30583;48.714;9.386;2022-09-09T14:43:24;24.80;40.80
44851;DHT22;30583;48.714;9.386;2022-09-09T14:45:49;25.20;40.90
44851;DHT22;30583;48.714;9.386;2022-09-09T14:48:16;25.00;40.70
44851;DHT22;30583;48.714;9.386;2022-09-09T14:50:42;24.70;39.70
44851;DHT22;30583;48.714;9.386;2022-09-09T14:53:08;24.20;41.50
44851;DHT22;30583;48.714;9.386;2022-09-09T14:55:35;23.80;42.90
44851;DHT22;30583;48.714;9.386;2022-09-09T14:58:00;23.80;42.80
44851;DHT22;30583;48.714;9.386;2022-09-09T15:00:26;23.80;41.60
44851;DHT22;30583;48.714;9.386;2022-09-09T15:02:53;24.00;41.70
44851;DHT22;30583;48.714;9.386;2022-09-09T15:05:19;24.40;41.00
44851;DHT22;30583;48.714;9.386;2022-09-09T15:07:44;24.50;41.80
44851;DHT22;30583;48.714;9.386;2022-09-09T15:10:10;24.20;40.10
44851;DHT22;30583;48.714;9.386;2022-09-09T15:12:36;24.20;39.90
44851;DHT22;30583;48.714;9.386;2022-09-09T15:15:04;24.40;40.20
44851;DHT22;30583;48.714;9.386;2022-09-09T15:17:29;24.40;40.00
44851;DHT22;30583;48.714;9.386;2022-09-09T15:19:55;24.70;39.00
44851;DHT22;30583;48.714;9.386;2022-09-09T15:22:21;24.30;39.60
44851;DHT22;30583;48.714;9.386;2022-09-09T15:24:47;23.60;39.80
44851;DHT22;30583;48.714;9.386;2022-09-09T15:27:12;24.20;39.00
44851;DHT22;30583;48.714;9.386;2022-09-09T15:29:40;24.30;39.80
44851;DHT22;30583;48.714;9.386;2022-09-09T15:32:07;23.90;39.80
44851;DHT22;30583;48.714;9.386;2022-09-09T15:34:32;23.90;40.00
44851;DHT22;30583;48.714;9.386;2022-09-09T15:36:58;23.60;40.50
44851;DHT22;30583;48.714;9.386;2022-09-09T15:39:25;23.70;40.30
44851;DHT22;30583;48.714;9.386;2022-09-09T15:41:50;23.80;40.00
44851;DHT22;30583;48.714;9.386;2022-09-09T15:44:16;24.30;39.30
44851;DHT22;30583;48.714;9.386;2022-09-09T15:46:44;23.70;40.50
44851;DHT22;30583;48.714;9.386;2022-09-09T15:49:21;23.70;40.60
44851;DHT22;30583;48.714;9.386;2022-09-09T15:51:55;23.50;41.30
44851;DHT22;30583;48.714;9.386;2022-09-09T15:54:23;23.00;42.50
44851;DHT22;30583;48.714;9.386;2022-09-09T15:56:58;23.00;42.60
44851;DHT22;30583;48.714;9.386;2022-09-09T15:59:26;23.20;42.60
44851;DHT22;30583;48.714;9.386;2022-09-09T16:01:53;23.00;42.90
44851;DHT22;30583;48.714;9.386;2022-09-09T16:04:19;22.90;43.80
44851;DHT22;30583;48.714;9.386;2022-09-09T16:06:55;22.60;44.20
44851;DHT22;30583;48.714;9.386;2022-09-09T16:09:21;22.50;43.70
44851;DHT22;30583;48.714;9.386;2022-09-09T16:11:47;22.70;43.70
44851;DHT22;30583;48.714;9.386;2022-09-09T16:14:14;22.70;43.30
44851;DHT22;30583;48.714;9.386;2022-09-09T16:16:41;22.90;43.10
44851;DHT22;30583;48.714;9.386;2022-09-09T16:19:09;22.50;44.40
44851;DHT22;30583;48.714;9.386;2022-09-09T16:21:48;22.30;43.30
44851;DHT22;30583;48.714;9.386;2022-09-09T16:24:17;22.20;44.10
44851;DHT22;30583;48.714;9.386;2022-09-09T16:26:48;22.20;43.90
44851;DHT22;30583;48.714;9.386;2022-09-09T16:29:15;22.20;43.40
44851;DHT22;30583;48.714;9.386;2022-09-09T16:31:42;22.00;43.80
44851;DHT22;30583;48.714;9.386;2022-09-09T16:34:09;21.90;43.00
44851;DHT22;30583;48.714;9.386;2022-09-09T16:36:36;21.70;44.20
44851;DHT22;30583;48.714;9.386;2022-09-09T16:39:05;21.70;44.10
44851;DHT22;30583;48.714;9.386;2022-09-09T16:41:31;21.70;43.80
44851;DHT22;30583;48.714;9.386;2022-09-09T16:44:02;21.70;44.10
44851;DHT22;30583;48.714;9.386;2022-09-09T16:46:29;21.60;44.80
44851;DHT22;30583;48.714;9.386;2022-09-09T16:48:57;21.70;44.70
44851;DHT22;30583;48.714;9.386;2022-09-09T16:51:35;21.60;45.00
44851;DHT22;30583;48.714;9.386;2022-09-09T16:54:03;21.70;45.60
44851;DHT22;30583;48.714;9.386;2022-09-09T16:56:31;21.70;45.20
44851;DHT22;30583;48.714;9.386;2022-09-09T16:59:04;21.50;45.80
44851;DHT22;30583;48.714;9.386;2022-09-09T17:01:32;21.40;46.00
44851;DHT22;30583;48.714;9.386;2022-09-09T17:04:00;21.40;46.40
44851;DHT22;30583;48.714;9.386;2022-09-09T17:06:27;21.50;46.10
44851;DHT22;30583;48.714;9.386;2022-09-09T17:08:55;21.30;46.60
44851;DHT22;30583;48.714;9.386;2022-09-09T17:11:21;21.40;46.50
44851;DHT22;30583;48.714;9.386;2022-09-09T17:13:47;21.20;46.90
44851;DHT22;30583;48.714;9.386;2022-09-09T17:16:14;21.40;47.50
44851;DHT22;30583;48.714;9.386;2022-09-09T17:18:40;21.40;47.40
44851;DHT22;30583;48.714;9.386;2022-09-09T17:21:12;21.20;47.00
44851;DHT22;30583;48.714;9.386;2022-09-09T17:23:39;21.10;46.90
44851;DHT22;30583;48.714;9.386;2022-09-09T17:26:07;21.10;47.30
44851;DHT22;30583;48.714;9.386;2022-09-09T17:28:34;21.20;47.70
44851;DHT22;30583;48.714;9.386;2022-09-09T17:31:00;21.00;48.10
44851;DHT22;30583;48.714;9.386;2022-09-09T17:33:28;21.20;49.00
44851;DHT22;30583;48.714;9.386;2022-09-09T17:35:57;21.20;48.10